createdAt,value
2022-09-05T00:27:35.318Z,6.28
2022-09-05T00:31:06.830Z,9.48
2022-09-05T00:33:32.201Z,3.78
2022-09-05T00:36:28.386Z,4.95
2022-09-05T00:39:02.028Z,4.65
2022-09-05T00:41:30.103Z,4.50
2022-09-05T00:46:35.889Z,5.38
2022-09-05T00:49:35.874Z,4.50
2022-09-05T00:52:18.967Z,4.05
2022-09-05T00:55:18.587Z,4.15
2022-09-05T00:58:16.060Z,7.15
2022-09-05T01:00:53.729Z,7.63
2022-09-05T01:03:46.434Z,3.17
2022-09-05T01:07:22.234Z,7.60
2022-09-05T01:10:04.331Z,4.00
2022-09-05T01:12:53.024Z,4.07
2022-09-05T01:15:33.061Z,8.88
2022-09-05T01:42:18.449Z,6.57
2022-09-05T01:45:13.410Z,10.15
2022-09-05T02:03:21.611Z,7.15
2022-09-05T02:06:19.682Z,4.88
2022-09-05T02:09:18.822Z,7.15
2022-09-05T02:12:02.160Z,5.78
2022-09-05T02:18:01.491Z,8.77
2022-09-05T02:20:43.668Z,4.72
2022-09-05T02:23:40.674Z,9.10
2022-09-05T02:26:24.942Z,7.35
2022-09-05T02:29:02.269Z,5.28
2022-09-05T02:31:51.093Z,3.50
2022-09-05T02:34:53.485Z,5.22
2022-09-05T02:38:47.135Z,7.45
2022-09-05T02:45:04.042Z,6.65
2022-09-05T02:45:19.430Z,4.72
2022-09-05T02:47:03.364Z,6.35
2022-09-05T02:52:21.251Z,7.88
2022-09-05T02:57:37.038Z,5.75
2022-09-05T02:57:41.359Z,7.60
2022-09-05T02:59:11.094Z,6.88
2022-09-05T03:02:05.709Z,6.40
2022-09-05T03:05:37.528Z,6.90
2022-09-05T03:09:16.595Z,8.25
2022-09-05T03:12:29.529Z,5.50
2022-09-05T03:15:44.710Z,4.25
2022-09-05T03:18:48.761Z,7.68
2022-09-05T03:22:14.001Z,3.75
2022-09-05T03:29:12.282Z,2.75
2022-09-05T03:32:29.954Z,8.68
2022-09-05T03:41:58.203Z,4.35
2022-09-05T03:48:28.508Z,6.55
2022-09-05T04:08:08.060Z,5.22
2022-09-05T04:08:15.654Z,5.70
2022-09-05T04:09:53.475Z,5.72
2022-09-05T04:12:32.653Z,4.65
2022-09-05T04:15:28.488Z,6.65
2022-09-05T04:18:06.014Z,6.93
2022-09-05T04:20:51.913Z,6.25
2022-09-05T04:23:46.539Z,5.28
2022-09-05T04:26:27.698Z,5.32
2022-09-05T04:29:23.526Z,6.13
2022-09-05T04:32:36.613Z,2.72
2022-09-05T04:35:42.569Z,3.38
2022-09-05T04:38:17.781Z,4.07
2022-09-05T04:41:03.416Z,4.32
2022-09-05T04:44:08.885Z,5.18
2022-09-05T04:46:52.096Z,4.10
2022-09-05T04:49:31.376Z,2.97
2022-09-05T04:52:44.278Z,3.97
2022-09-05T04:55:16.443Z,4.70
2022-09-05T04:58:00.538Z,23.15
2022-09-05T05:05:59.772Z,12.07
2022-09-05T05:06:11.032Z,18.80
2022-09-05T05:06:45.343Z,13.55
2022-09-05T05:10:03.273Z,9.68
2022-09-05T05:17:58.680Z,21.05
2022-09-05T05:18:07.956Z,105.38
2022-09-05T05:19:33.774Z,58.95
2022-09-05T05:22:03.501Z,147.43
2022-09-05T05:24:44.358Z,91.78
2022-09-05T05:27:38.913Z,132.43
2022-09-05T05:30:08.726Z,108.45
2022-09-05T05:32:45.535Z,96.15
2022-09-05T05:35:19.048Z,24.92
2022-09-05T05:37:52.090Z,31.17
2022-09-05T05:40:26.450Z,7.18
2022-09-05T05:43:17.409Z,29.58
2022-09-05T05:45:44.446Z,28.95
2022-09-05T05:48:40.861Z,27.98
2022-09-05T05:52:01.553Z,28.80
2022-09-05T05:54:49.862Z,29.15
2022-09-05T05:57:45.009Z,30.77
2022-09-05T06:00:51.984Z,8.30
2022-09-05T06:04:12.849Z,37.25
2022-09-05T06:07:02.239Z,52.47
2022-09-05T06:14:53.129Z,22.08
2022-09-05T06:14:59.032Z,67.38
2022-09-05T06:17:11.950Z,28.20
2022-09-05T06:33:34.878Z,7.70
2022-09-05T06:36:47.693Z,11.50
2022-09-05T06:39:34.063Z,10.02
2022-09-05T06:42:53.254Z,25.70
2022-09-05T06:45:37.624Z,6.75
2022-09-05T06:48:45.540Z,7.68
2022-09-05T07:21:18.257Z,9.32
2022-09-05T07:24:09.315Z,17.90
2022-09-05T07:26:53.852Z,12.57
2022-09-05T07:29:37.487Z,13.77
2022-09-05T07:34:35.430Z,13.07
2022-09-05T07:37:16.303Z,10.73
2022-09-05T07:40:04.096Z,12.05
2022-09-05T07:43:25.802Z,9.43
2022-09-05T07:46:14.996Z,14.05
2022-09-05T07:48:50.245Z,11.35
2022-09-05T07:56:47.272Z,9.25
2022-09-05T07:56:59.012Z,10.23
2022-09-05T07:57:25.564Z,10.02
2022-09-05T08:00:02.544Z,10.38
2022-09-05T08:02:29.447Z,9.32
2022-09-05T08:05:03.612Z,9.40
2022-09-05T08:07:49.929Z,10.15
2022-09-05T08:11:24.658Z,9.55
2022-09-05T08:14:35.431Z,9.10
2022-09-05T08:16:48.952Z,11.80
2022-09-05T08:19:51.434Z,9.00
2022-09-05T08:22:29.360Z,9.05
2022-09-05T08:25:17.130Z,8.52
2022-09-05T08:28:19.540Z,8.05
2022-09-05T08:30:55.712Z,9.48
2022-09-05T08:33:32.753Z,15.30
2022-09-05T08:36:14.421Z,11.45
2022-09-05T08:38:43.869Z,10.63
2022-09-05T08:41:49.982Z,9.43
2022-09-05T08:46:39.831Z,11.10
2022-09-05T08:47:56.768Z,10.80
2022-09-05T08:51:15.751Z,10.00
2022-09-05T08:54:09.882Z,11.77
2022-09-05T08:57:28.826Z,18.15
2022-09-05T09:00:20.173Z,13.68
2022-09-05T09:03:26.478Z,11.10
2022-09-05T09:06:33.415Z,12.40
2022-09-05T09:09:24.723Z,11.15
2022-09-05T09:12:50.194Z,14.20
2022-09-05T09:15:49.441Z,12.63
2022-09-05T09:18:18.426Z,16.52
2022-09-05T09:20:57.097Z,12.18
2022-09-05T09:24:20.621Z,15.85
2022-09-05T10:25:29.162Z,9.05
2022-09-05T10:28:39.422Z,9.82
2022-09-05T10:32:23.241Z,16.17
2022-09-05T10:35:14.877Z,8.25
2022-09-05T10:37:15.160Z,8.18
2022-09-05T10:39:47.439Z,9.75
2022-09-05T10:44:56.302Z,7.55
2022-09-05T10:47:39.147Z,8.45
2022-09-05T10:50:28.452Z,8.55
2022-09-05T10:53:23.916Z,11.05
2022-09-05T10:56:06.854Z,10.70
2022-09-05T11:02:15.833Z,8.98
2022-09-05T11:02:31.572Z,9.63
2022-09-05T11:05:30.850Z,9.10
2022-09-05T11:08:39.438Z,14.50
2022-09-05T11:11:28.479Z,11.25
2022-09-05T11:14:18.631Z,13.80
2022-09-05T11:17:02.309Z,13.43
2022-09-05T11:19:39.657Z,10.20
2022-09-05T11:22:23.907Z,12.27
2022-09-05T11:25:04.092Z,11.82
2022-09-05T11:28:00.209Z,11.75
2022-09-05T11:30:38.705Z,13.93
2022-09-05T11:38:47.704Z,22.42
2022-09-05T11:40:09.704Z,15.98
2022-09-05T11:40:28.469Z,13.57
2022-09-05T11:43:57.446Z,13.82
2022-09-05T11:47:28.310Z,11.32
2022-09-05T11:50:34.155Z,10.85
2022-09-05T11:53:40.884Z,17.95
2022-09-05T11:56:42.682Z,14.93
2022-09-05T12:00:31.695Z,13.35
2022-09-05T12:03:58.175Z,15.57
2022-09-05T12:06:55.347Z,13.48
2022-09-05T12:09:59.297Z,11.65
2022-09-05T12:12:41.489Z,11.50
2022-09-05T12:15:34.174Z,15.43
2022-09-05T12:18:56.286Z,15.10
2022-09-05T12:21:38.163Z,19.55
2022-09-05T12:25:25.934Z,12.88
2022-09-05T12:27:41.630Z,15.82
2022-09-05T12:30:14.159Z,17.57
2022-09-05T12:36:04.622Z,16.10
2022-09-05T12:40:03.171Z,16.38
2022-09-05T12:40:55.075Z,14.88
2022-09-05T12:42:14.347Z,12.77
2022-09-05T12:45:11.485Z,14.52
2022-09-05T12:47:59.126Z,16.42
2022-09-05T12:50:39.181Z,25.70
2022-09-05T12:53:11.179Z,12.23
2022-09-05T12:55:47.022Z,13.80
2022-09-05T13:03:03.140Z,18.38
2022-09-05T13:03:03.931Z,16.83
2022-09-05T13:05:01.803Z,15.73
2022-09-05T13:08:02.475Z,12.95
2022-09-05T13:14:48.923Z,11.68
2022-09-05T13:15:00.652Z,14.63
2022-09-05T13:16:25.031Z,12.13
2022-09-05T13:19:07.371Z,11.27
2022-09-05T13:24:18.914Z,11.38
2022-09-05T13:26:57.737Z,14.32
2022-09-05T13:29:35.156Z,13.70
2022-09-05T13:37:58.391Z,13.82
2022-09-05T13:38:11.852Z,12.23
2022-09-05T13:38:48.477Z,11.57
2022-09-05T13:41:27.435Z,13.13
2022-09-05T13:44:00.376Z,14.10
2022-09-05T13:46:58.511Z,11.30
2022-09-05T13:49:37.379Z,14.75
2022-09-05T13:52:29.991Z,11.88
2022-09-05T13:57:55.020Z,12.38
2022-09-05T14:00:44.437Z,11.63
2022-09-05T14:03:54.663Z,12.30
2022-09-05T14:10:47.263Z,11.90
2022-09-05T14:13:27.362Z,12.80
2022-09-05T14:16:06.649Z,11.10
2022-09-05T14:18:58.343Z,16.25
2022-09-05T14:21:30.392Z,10.43
2022-09-05T14:24:27.937Z,15.27
2022-09-05T14:27:17.466Z,10.93
2022-09-05T14:30:03.936Z,14.70
2022-09-05T14:37:38.825Z,12.35
2022-09-05T14:37:49.104Z,14.43
2022-09-05T14:39:20.023Z,8.40
2022-09-05T14:42:35.064Z,9.98
2022-09-05T14:46:06.130Z,13.32
2022-09-05T14:49:15.562Z,10.05
2022-09-05T14:51:47.626Z,8.38
2022-09-05T15:02:03.964Z,9.68
2022-09-05T15:02:51.984Z,9.88
2022-09-05T15:03:04.295Z,9.07
2022-09-05T15:05:41.062Z,7.72
2022-09-05T15:08:42.547Z,11.48
2022-09-05T15:12:19.699Z,9.52
2022-09-05T15:14:09.276Z,10.52
2022-09-05T15:16:43.368Z,8.02
2022-09-05T15:19:10.856Z,9.80
2022-09-05T15:21:41.238Z,11.23
2022-09-05T15:24:29.569Z,13.45
2022-09-05T15:26:59.304Z,10.52
2022-09-05T15:29:32.095Z,8.88
2022-09-05T15:32:26.319Z,11.05
2022-09-05T15:34:55.693Z,6.97
2022-09-05T15:37:40.387Z,11.35
2022-09-05T15:40:23.538Z,11.95
2022-09-05T15:43:02.615Z,9.25
2022-09-05T15:45:35.203Z,7.95
2022-09-05T15:48:06.451Z,11.20
2022-09-05T15:50:42.000Z,14.50
2022-09-05T15:53:20.641Z,11.55
2022-09-05T15:55:50.390Z,11.45
2022-09-05T15:58:25.125Z,7.65
2022-09-05T16:00:55.565Z,7.68
2022-09-05T16:04:31.444Z,7.40
2022-09-05T16:10:37.543Z,8.32
2022-09-05T16:10:44.978Z,10.35
2022-09-05T16:18:17.286Z,7.70
2022-09-05T16:23:15.700Z,10.02
2022-09-05T16:23:28.532Z,8.20
2022-09-05T16:24:02.426Z,10.27
2022-09-05T16:26:42.261Z,11.82
2022-09-05T16:29:46.362Z,12.85
2022-09-05T16:32:27.335Z,12.15
2022-09-05T16:35:06.179Z,10.10
2022-09-05T16:38:02.657Z,9.48
2022-09-05T16:40:34.287Z,9.18
2022-09-05T16:43:33.581Z,8.90
2022-09-05T16:46:37.426Z,10.40
2022-09-05T16:49:41.864Z,11.65
2022-09-05T16:52:17.093Z,10.98
2022-09-05T16:54:54.238Z,9.77
2022-09-05T16:57:27.891Z,10.98
2022-09-05T16:59:55.631Z,11.60
2022-09-05T17:02:50.463Z,10.10
2022-09-05T17:05:46.245Z,13.65
2022-09-05T17:08:28.325Z,14.07
2022-09-05T17:11:13.692Z,27.27
2022-09-05T17:13:56.245Z,24.63
2022-09-05T17:16:27.815Z,14.05
2022-09-05T17:18:59.413Z,18.98
2022-09-05T17:23:27.892Z,21.52
2022-09-05T17:29:23.906Z,25.25
2022-09-05T17:29:32.960Z,18.08
2022-09-05T17:33:00.640Z,19.42
2022-09-05T17:35:54.382Z,14.70
2022-09-05T17:38:48.276Z,26.63
2022-09-05T17:41:56.091Z,30.33
2022-09-05T17:44:39.245Z,31.35
2022-09-05T17:47:35.444Z,51.55
2022-09-05T17:50:39.855Z,30.88
2022-09-05T17:53:26.367Z,22.98
2022-09-05T17:56:14.246Z,15.60
2022-09-05T17:59:01.842Z,45.20
2022-09-05T18:01:32.351Z,35.95
2022-09-05T18:04:17.002Z,32.05
2022-09-05T18:06:59.038Z,24.67
2022-09-05T18:10:14.557Z,26.52
2022-09-05T18:13:31.428Z,23.33
2022-09-05T18:16:15.098Z,25.88
2022-09-05T18:21:51.481Z,24.02
2022-09-05T18:24:42.229Z,28.73
2022-09-05T18:28:03.133Z,31.38
2022-09-05T18:30:29.487Z,28.77
2022-09-05T18:33:55.160Z,20.40
2022-09-05T18:36:38.981Z,23.67
2022-09-05T18:39:41.512Z,17.88
2022-09-05T18:42:33.133Z,18.33
2022-09-05T18:45:14.577Z,18.40
2022-09-05T18:48:02.514Z,20.08
2022-09-05T18:50:34.342Z,17.48
2022-09-05T18:53:10.756Z,17.65
2022-09-05T18:56:28.904Z,21.85
2022-09-05T18:59:23.998Z,14.18
2022-09-05T19:02:32.103Z,17.05
2022-09-05T19:05:19.760Z,14.73
2022-09-05T19:10:36.282Z,15.40
2022-09-05T19:13:16.794Z,22.70
2022-09-05T19:16:42.639Z,12.13
2022-09-05T19:19:18.561Z,16.25
2022-09-05T19:22:10.390Z,15.55
2022-09-05T19:24:44.579Z,13.38
2022-09-05T19:28:02.821Z,14.70
2022-09-05T19:36:46.873Z,14.50
2022-09-05T19:37:03.296Z,13.27
2022-09-05T19:37:09.605Z,15.10
2022-09-05T19:38:23.240Z,16.50
2022-09-05T19:47:25.794Z,13.82
2022-09-05T19:47:35.044Z,17.75
2022-09-05T19:47:39.850Z,15.20
2022-09-05T19:49:13.726Z,24.30
2022-09-05T19:51:41.930Z,13.05
2022-09-05T19:54:24.438Z,13.02
2022-09-05T19:59:34.342Z,16.55
2022-09-05T20:02:02.646Z,25.15
2022-09-05T20:04:47.988Z,13.93
2022-09-05T20:07:26.190Z,20.48
2022-09-05T20:09:54.776Z,19.00
2022-09-05T20:12:38.041Z,17.55
2022-09-05T20:15:35.791Z,15.73
2022-09-05T20:18:43.130Z,16.08
2022-09-05T20:21:27.985Z,13.65
2022-09-05T20:23:56.417Z,13.63
2022-09-05T20:26:29.437Z,18.27
2022-09-05T20:29:02.543Z,12.80
2022-09-05T20:31:33.057Z,18.25
2022-09-05T20:34:56.781Z,15.05
2022-09-05T20:43:11.115Z,17.17
2022-09-05T20:43:16.380Z,15.75
2022-09-05T20:43:20.654Z,14.48
2022-09-05T20:47:30.066Z,13.60
2022-09-05T20:54:06.258Z,12.90
2022-09-05T20:54:20.152Z,17.58
2022-09-05T20:54:42.037Z,17.33
2022-09-05T20:57:17.781Z,13.00
2022-09-05T20:59:47.248Z,16.50
2022-09-05T21:02:27.174Z,17.73
2022-09-05T21:05:20.037Z,14.32
2022-09-05T21:08:01.096Z,13.43
2022-09-05T21:10:35.272Z,18.27
2022-09-05T21:13:30.216Z,15.35
2022-09-05T21:15:57.604Z,17.77
2022-09-05T21:18:33.796Z,14.98
2022-09-05T21:21:14.624Z,13.05
2022-09-05T21:24:23.111Z,15.32
2022-09-05T21:26:50.386Z,13.10
2022-09-05T21:29:27.397Z,13.32
2022-09-05T21:32:01.595Z,14.85
2022-09-05T21:34:34.354Z,14.93
2022-09-05T21:37:07.185Z,12.82
2022-09-05T21:39:46.675Z,13.88
2022-09-05T21:46:32.997Z,19.70
2022-09-05T21:47:41.436Z,17.50
2022-09-05T21:48:03.661Z,11.98
2022-09-05T21:50:55.986Z,14.90
2022-09-05T21:56:45.270Z,17.17
2022-09-05T21:59:17.641Z,15.23
2022-09-05T21:59:40.057Z,16.98
2022-09-05T22:02:13.465Z,17.27
2022-09-05T22:04:41.795Z,14.60
2022-09-05T22:07:14.306Z,19.52
2022-09-05T22:12:26.945Z,18.92
2022-09-05T22:14:54.394Z,17.30
2022-09-05T22:17:22.353Z,15.00
2022-09-05T22:19:50.117Z,17.63
2022-09-05T22:22:17.876Z,12.90
2022-09-05T22:24:56.320Z,13.95
2022-09-05T22:27:25.910Z,12.55
2022-09-05T22:29:52.903Z,16.90
2022-09-05T22:32:33.734Z,12.73
2022-09-05T22:35:01.019Z,13.98
2022-09-05T22:37:49.428Z,12.88
2022-09-05T22:40:27.861Z,17.08
2022-09-05T22:43:00.056Z,13.30
2022-09-05T22:45:28.336Z,18.15
2022-09-05T22:47:55.599Z,13.32
2022-09-05T22:50:22.798Z,16.88
2022-09-05T22:52:49.678Z,18.90
2022-09-05T22:55:16.797Z,14.23
2022-09-05T22:57:43.609Z,13.30
2022-09-05T23:00:11.648Z,14.57
2022-09-05T23:02:38.293Z,15.02
2022-09-05T23:05:06.174Z,15.20
2022-09-05T23:07:32.967Z,14.60
2022-09-05T23:09:59.645Z,19.50
2022-09-05T23:12:26.801Z,12.75
2022-09-05T23:14:53.775Z,19.35
2022-09-05T23:17:20.432Z,12.98
2022-09-05T23:19:47.098Z,15.32
2022-09-05T23:22:13.762Z,13.80
2022-09-05T23:24:40.449Z,15.73
2022-09-05T23:27:07.107Z,15.30
2022-09-05T23:29:33.686Z,17.23
2022-09-05T23:32:00.385Z,15.65
2022-09-05T23:34:27.082Z,13.75
2022-09-05T23:36:53.984Z,17.98
2022-09-05T23:39:20.643Z,18.58
2022-09-05T23:41:47.415Z,15.82
2022-09-05T23:44:14.068Z,12.75
2022-09-05T23:46:40.698Z,17.15
2022-09-05T23:49:07.449Z,12.68
2022-09-05T23:51:34.085Z,16.02
2022-09-05T23:54:00.680Z,14.15
2022-09-05T23:56:27.357Z,15.93
2022-09-05T23:58:54.043Z,16.30
